Oakbrook, Washington
Current Conditions -  °F | °C
As of 4:58 PM on Saturday 25 Oct 2014 (Local Time) from KTCM Reporting Station
Overcast Overcast  
Wind Chill: 62°   Ceiling: 4300
Heat Index: 62°   Visibility: 10mi
Dew Point: 51°   Wind: 24mph
Humidity: 67%   Direction: 180°S
Pressure: 29.28"   Gusts: 35mph
Location:  47.1809°N, 122.548°W
Report Text: KTCM 252358Z AUTO 18021G30KT 10SM OVC043 17/11 A2928 RMK AO2 PK WND 14033/46 SLP919 60003 T01690107 10169 20123 57013 $
Loading
Personal Weather Stations






























Interactive Weather Map New forecast layout! Learn more

10-Day Weather Forecast

Advertisements
Track Severe Weather on mobile